Terminal Aerodrome Forecast
Issued by NWS Jackson, MS

Home | Current Version | Previous Version | Text Only | Print | Product List | Glossary On
Versions: 1 2 3 4 5 6 7 8 9 10 11 12 13 14 15 16
250
FTUS44 KMEG 232330
TAFTUP
TAF
KTUP 232330Z 2400/2424 23003KT P6SM SKC
     FM240600 30004KT P6SM SKC
     FM241500 32015G21KT P6SM SKC
     FM242000 31013G20KT P6SM OVC050=

USA.gov is the U.S. government's official web portal to all federal, state and local government web resources and services.